createdAt,value
2023-02-19T00:01:31.292Z,12.90
2023-02-19T00:04:07.630Z,12.85
2023-02-19T00:06:35.907Z,11.25
2023-02-19T00:09:04.143Z,12.35
2023-02-19T00:11:34.273Z,13.55
2023-02-19T00:14:02.588Z,12.90
2023-02-19T00:16:32.858Z,15.00
2023-02-19T00:19:01.000Z,16.38
2023-02-19T00:21:28.312Z,17.23
2023-02-19T00:24:03.837Z,17.63
2023-02-19T00:26:31.355Z,16.55
2023-02-19T00:28:58.930Z,15.88
2023-02-19T00:31:34.379Z,13.93
2023-02-19T00:34:04.248Z,21.83
2023-02-19T00:36:31.878Z,12.65
2023-02-19T00:38:58.816Z,16.77
2023-02-19T00:41:26.484Z,12.63
2023-02-19T00:44:00.496Z,19.42
2023-02-19T00:46:29.818Z,11.60
2023-02-19T00:48:57.729Z,13.27
2023-02-19T00:51:27.465Z,13.57
2023-02-19T00:53:54.301Z,11.98
2023-02-19T00:56:21.684Z,21.55
2023-02-19T00:58:49.540Z,14.75
2023-02-19T01:01:16.918Z,14.63
2023-02-19T01:03:43.751Z,14.57
2023-02-19T01:06:13.005Z,15.80
2023-02-19T01:08:40.020Z,13.63
2023-02-19T01:11:08.554Z,17.50
2023-02-19T01:13:36.057Z,17.38
2023-02-19T01:16:16.752Z,18.88
2023-02-19T01:18:43.982Z,22.15
2023-02-19T01:21:14.901Z,24.15
2023-02-19T01:23:41.900Z,29.73
2023-02-19T01:26:12.492Z,24.13
2023-02-19T01:28:39.718Z,18.65
2023-02-19T01:31:09.376Z,25.27
2023-02-19T01:33:36.381Z,20.83
2023-02-19T01:36:04.447Z,20.70
2023-02-19T01:38:31.242Z,24.65
2023-02-19T01:41:07.250Z,31.88
2023-02-19T01:43:54.917Z,22.70
2023-02-19T01:46:21.801Z,36.70
2023-02-19T01:48:49.031Z,32.95
2023-02-19T01:51:20.064Z,23.88
2023-02-19T01:53:54.060Z,26.40
2023-02-19T01:56:22.204Z,28.88
2023-02-19T01:58:49.248Z,26.20
2023-02-19T02:01:16.148Z,23.85
2023-02-19T02:03:47.141Z,25.50
2023-02-19T02:06:19.873Z,20.90
2023-02-19T02:09:05.863Z,25.83
2023-02-19T02:11:32.824Z,25.13
2023-02-19T02:14:00.639Z,26.02
2023-02-19T02:17:11.221Z,24.95
2023-02-19T02:20:08.128Z,26.25
2023-02-19T02:22:41.348Z,29.98
2023-02-19T02:25:10.971Z,23.83
2023-02-19T02:28:01.873Z,23.70
2023-02-19T02:30:33.299Z,30.98
2023-02-19T02:33:29.608Z,23.05
2023-02-19T02:36:14.836Z,23.15
2023-02-19T02:38:44.965Z,19.13
2023-02-19T02:41:14.093Z,15.40
2023-02-19T02:43:41.661Z,18.17
2023-02-19T02:46:12.881Z,20.05
2023-02-19T02:48:45.397Z,15.02
2023-02-19T02:51:12.787Z,18.80
2023-02-19T02:54:12.308Z,13.35
2023-02-19T02:56:41.403Z,16.15
2023-02-19T02:59:11.274Z,14.77
2023-02-19T03:02:12.692Z,18.23
2023-02-19T03:05:17.166Z,16.55
2023-02-19T03:08:01.977Z,13.02
2023-02-19T03:10:40.033Z,11.98
2023-02-19T03:13:37.967Z,12.52
2023-02-19T03:16:30.753Z,16.63
2023-02-19T03:19:18.347Z,16.23
2023-02-19T03:22:11.657Z,16.00
2023-02-19T03:25:17.847Z,12.02
2023-02-19T03:27:47.974Z,13.45
2023-02-19T03:30:23.542Z,12.15
2023-02-19T03:33:00.740Z,12.77
2023-02-19T03:35:31.659Z,11.55
2023-02-19T03:38:40.309Z,14.15
2023-02-19T03:41:11.751Z,19.52
2023-02-19T03:43:45.330Z,13.20
2023-02-19T03:46:46.844Z,14.60
2023-02-19T03:49:24.185Z,14.02
2023-02-19T03:52:20.537Z,12.75
2023-02-19T03:54:57.070Z,14.23
2023-02-19T03:57:28.611Z,11.80
2023-02-19T04:00:11.386Z,13.45
2023-02-19T04:02:55.768Z,14.60
2023-02-19T04:05:30.220Z,13.00
2023-02-19T04:08:06.188Z,14.90
2023-02-19T04:10:33.469Z,13.18
2023-02-19T04:13:08.112Z,14.07
2023-02-19T04:15:41.276Z,12.40
2023-02-19T04:18:13.599Z,18.73
2023-02-19T04:20:44.539Z,17.65
2023-02-19T04:23:12.774Z,17.52
2023-02-19T04:25:45.173Z,16.98
2023-02-19T04:28:14.905Z,14.82
2023-02-19T04:30:42.065Z,17.27
2023-02-19T04:33:09.117Z,22.08
2023-02-19T04:35:36.426Z,17.45
2023-02-19T04:38:03.706Z,14.80
2023-02-19T04:40:30.641Z,15.32
2023-02-19T04:42:57.580Z,18.63
2023-02-19T04:45:24.443Z,22.77
2023-02-19T04:47:51.279Z,16.13
2023-02-19T04:50:18.209Z,22.38
2023-02-19T04:52:45.074Z,15.43
2023-02-19T04:55:12.041Z,17.83
2023-02-19T04:57:38.816Z,13.98
2023-02-19T05:00:06.306Z,18.10
2023-02-19T05:02:33.082Z,16.63
2023-02-19T05:04:59.898Z,17.25
2023-02-19T05:07:26.705Z,19.85
2023-02-19T05:09:53.457Z,19.05
2023-02-19T05:12:20.328Z,18.52
2023-02-19T05:14:47.520Z,16.60
2023-02-19T05:17:14.687Z,21.02
2023-02-19T05:19:41.840Z,16.25
2023-02-19T05:22:08.656Z,17.20
2023-02-19T05:24:35.435Z,16.17
2023-02-19T05:27:02.234Z,14.38
2023-02-19T05:29:31.367Z,16.50
2023-02-19T05:31:58.681Z,14.43
2023-02-19T05:34:25.956Z,17.77
2023-02-19T05:36:52.744Z,22.10
2023-02-19T05:39:19.568Z,21.92
2023-02-19T05:41:46.398Z,23.15
2023-02-19T05:44:13.204Z,18.35
2023-02-19T05:46:40.065Z,22.17
2023-02-19T05:49:06.951Z,19.95
2023-02-19T05:51:33.733Z,21.23
2023-02-19T05:54:01.032Z,22.70
2023-02-19T05:56:34.161Z,19.52
2023-02-19T05:59:07.927Z,19.83
2023-02-19T06:01:35.336Z,16.02
2023-02-19T06:04:02.560Z,26.70
2023-02-19T06:06:29.457Z,114.68
2023-02-19T06:08:56.751Z,130.55
2023-02-19T06:11:24.536Z,91.18
2023-02-19T06:13:51.433Z,42.15
2023-02-19T06:16:18.766Z,38.10
2023-02-19T06:18:46.355Z,31.35
2023-02-19T06:21:14.996Z,28.48
2023-02-19T06:23:42.563Z,29.45
2023-02-19T06:26:12.549Z,27.52
2023-02-19T06:28:40.464Z,31.65
2023-02-19T06:31:08.064Z,28.23
2023-02-19T06:33:36.379Z,25.63
2023-02-19T06:36:04.985Z,24.50
2023-02-19T06:38:31.944Z,30.95
2023-02-19T06:41:03.737Z,33.72
2023-02-19T06:43:32.052Z,34.35
2023-02-19T06:46:00.742Z,39.72
2023-02-19T06:48:29.092Z,34.65
2023-02-19T06:50:56.282Z,34.42
2023-02-19T06:53:23.684Z,32.53
2023-02-19T06:56:08.279Z,27.70
2023-02-19T06:58:35.317Z,24.27
2023-02-19T07:01:02.214Z,21.40
2023-02-19T07:03:29.109Z,19.38
2023-02-19T07:05:59.085Z,21.08
2023-02-19T07:08:27.932Z,24.30
2023-02-19T07:10:57.580Z,19.85
2023-02-19T07:13:26.736Z,35.38
2023-02-19T07:16:07.979Z,23.95
2023-02-19T07:18:35.495Z,23.75
2023-02-19T07:21:06.821Z,24.35
2023-02-19T07:23:34.536Z,20.95
2023-02-19T07:26:01.941Z,20.95
2023-02-19T07:28:29.296Z,15.57
2023-02-19T07:31:02.123Z,17.95
2023-02-19T07:33:29.085Z,15.68
2023-02-19T07:35:56.419Z,15.40
2023-02-19T07:38:25.606Z,16.70
2023-02-19T07:41:00.020Z,13.73
2023-02-19T07:43:30.226Z,17.50
2023-02-19T07:45:57.180Z,13.20
2023-02-19T07:48:24.308Z,13.75
2023-02-19T07:50:55.505Z,16.88
2023-02-19T07:53:24.333Z,20.33
2023-02-19T07:55:51.760Z,13.05
2023-02-19T07:58:19.304Z,17.52
2023-02-19T08:00:46.323Z,15.98
2023-02-19T08:03:13.231Z,16.67
2023-02-19T08:05:42.319Z,19.45
2023-02-19T08:08:11.454Z,13.73
2023-02-19T08:10:56.770Z,15.32
2023-02-19T08:13:27.665Z,15.98
2023-02-19T08:16:20.070Z,12.73
2023-02-19T08:18:51.168Z,14.60
2023-02-19T08:21:20.429Z,15.50
2023-02-19T08:23:50.616Z,11.98
2023-02-19T08:26:17.853Z,9.48
2023-02-19T08:28:45.166Z,12.13
2023-02-19T08:31:13.099Z,11.50
2023-02-19T08:33:40.557Z,23.10
2023-02-19T08:36:09.407Z,13.05
2023-02-19T08:38:37.730Z,14.55
2023-02-19T08:41:07.408Z,11.48
2023-02-19T08:43:34.769Z,11.02
2023-02-19T08:46:02.197Z,12.13
2023-02-19T08:48:29.084Z,11.35
2023-02-19T08:50:58.356Z,12.07
2023-02-19T08:53:26.519Z,11.75
2023-02-19T08:55:54.146Z,14.50
2023-02-19T08:58:21.029Z,15.57
2023-02-19T09:00:48.117Z,14.40
2023-02-19T09:03:14.994Z,9.82
2023-02-19T09:05:41.941Z,11.73
2023-02-19T09:08:09.532Z,11.45
2023-02-19T09:10:36.968Z,9.70
2023-02-19T09:13:04.658Z,15.07
2023-02-19T09:15:33.429Z,14.48
2023-02-19T09:18:00.894Z,12.10
2023-02-19T09:20:27.792Z,16.20
2023-02-19T09:22:59.344Z,13.20
2023-02-19T09:25:26.632Z,10.75
2023-02-19T09:27:56.956Z,6.82
2023-02-19T09:30:24.132Z,3.78
2023-02-19T09:32:51.154Z,3.70
2023-02-19T09:35:18.156Z,3.70
2023-02-19T09:37:44.940Z,2.70
2023-02-19T09:40:12.573Z,2.60
2023-02-19T09:42:43.016Z,2.70
2023-02-19T09:45:17.749Z,5.32
2023-02-19T09:47:46.628Z,2.97
2023-02-19T09:50:19.813Z,2.72
2023-02-19T09:52:58.365Z,2.92
2023-02-19T09:55:34.837Z,3.75
2023-02-19T09:58:08.425Z,2.88
2023-02-19T10:00:37.607Z,3.97
2023-02-19T10:03:11.321Z,3.53
2023-02-19T10:05:39.930Z,4.65
2023-02-19T10:08:12.825Z,3.28
2023-02-19T10:10:41.526Z,2.63
2023-02-19T10:13:22.107Z,2.83
2023-02-19T10:15:52.530Z,2.72
2023-02-19T10:18:23.642Z,3.08
2023-02-19T10:20:52.625Z,3.75
2023-02-19T10:23:20.281Z,5.35
2023-02-19T10:25:58.546Z,4.80
2023-02-19T10:28:30.635Z,6.10
2023-02-19T10:31:00.409Z,3.90
2023-02-19T10:33:27.688Z,6.53
2023-02-19T10:35:57.714Z,4.63
2023-02-19T10:38:33.154Z,4.65
2023-02-19T10:41:07.544Z,4.10
2023-02-19T10:43:42.256Z,6.90
2023-02-19T10:46:23.566Z,3.72
2023-02-19T10:49:04.151Z,4.32
2023-02-19T10:51:41.979Z,4.45
2023-02-19T10:54:15.127Z,4.53
2023-02-19T10:56:42.256Z,4.38
2023-02-19T10:59:18.690Z,4.57
2023-02-19T11:02:01.266Z,4.28
2023-02-19T11:04:38.433Z,4.68
2023-02-19T11:07:17.003Z,3.88
2023-02-19T11:09:53.001Z,4.72
2023-02-19T11:12:31.955Z,7.13
2023-02-19T11:15:29.675Z,7.13
2023-02-19T11:18:07.133Z,4.40
2023-02-19T11:20:34.342Z,4.82
2023-02-19T11:23:15.621Z,4.00
2023-02-19T11:25:54.160Z,3.92
2023-02-19T11:28:27.205Z,5.07
2023-02-19T11:30:54.126Z,5.82
2023-02-19T11:33:27.597Z,5.20
2023-02-19T11:36:16.570Z,5.15
2023-02-19T11:38:43.599Z,4.07
2023-02-19T11:41:26.216Z,4.20
2023-02-19T11:44:14.244Z,7.05
2023-02-19T11:47:03.539Z,6.65
2023-02-19T11:50:11.918Z,4.90
2023-02-19T11:52:46.252Z,5.28
2023-02-19T11:55:37.731Z,4.60
2023-02-19T11:58:23.411Z,5.22
2023-02-19T12:01:12.207Z,4.13
2023-02-19T12:04:09.029Z,5.45
2023-02-19T12:06:46.830Z,5.85
2023-02-19T12:09:48.145Z,3.70
2023-02-19T12:12:41.436Z,4.80
2023-02-19T12:15:34.136Z,4.03
2023-02-19T12:18:34.656Z,4.47
2023-02-19T12:21:04.252Z,4.93
2023-02-19T12:23:54.801Z,4.07
2023-02-19T12:26:48.848Z,4.72
2023-02-19T12:29:31.417Z,5.18
2023-02-19T12:32:07.730Z,3.58
2023-02-19T12:34:53.309Z,4.32
2023-02-19T12:38:00.444Z,6.70
2023-02-19T12:40:37.186Z,7.15
2023-02-19T12:43:22.199Z,6.72
2023-02-19T12:45:54.851Z,5.60
2023-02-19T12:48:40.053Z,5.70
2023-02-19T12:51:06.864Z,6.75
2023-02-19T12:53:45.818Z,6.22
2023-02-19T12:56:22.819Z,4.53
2023-02-19T12:59:10.005Z,4.85
2023-02-19T13:05:41.256Z,4.85
2023-02-19T13:09:03.411Z,4.35
2023-02-19T13:11:40.267Z,6.80
2023-02-19T13:14:33.296Z,6.50
2023-02-19T13:17:18.483Z,10.35
2023-02-19T13:19:48.491Z,4.22
2023-02-19T13:22:47.877Z,3.80
2023-02-19T13:25:17.897Z,10.70
2023-02-19T13:28:06.204Z,5.82
2023-02-19T13:31:05.567Z,4.32
2023-02-19T13:33:32.563Z,8.07
2023-02-19T13:36:11.853Z,7.53
2023-02-19T13:38:45.089Z,9.82
2023-02-19T13:41:28.105Z,7.38
2023-02-19T13:44:02.401Z,6.85
2023-02-19T13:46:39.693Z,9.55
2023-02-19T13:49:25.260Z,8.20
2023-02-19T13:51:55.898Z,6.10
2023-02-19T13:54:31.449Z,9.02
2023-02-19T13:57:35.276Z,8.30
2023-02-19T14:00:02.186Z,5.22
2023-02-19T14:02:34.107Z,8.23
2023-02-19T14:05:11.514Z,9.80
2023-02-19T14:07:52.910Z,9.55
2023-02-19T14:10:53.036Z,6.95
2023-02-19T14:13:47.720Z,6.30
2023-02-19T14:16:49.616Z,6.43
2023-02-19T14:19:42.624Z,7.38
2023-02-19T14:22:48.786Z,6.30
2023-02-19T14:25:28.704Z,11.00
2023-02-19T14:28:01.750Z,5.72
2023-02-19T14:30:29.374Z,10.18
2023-02-19T14:33:09.661Z,7.95
2023-02-19T14:35:44.194Z,6.15
2023-02-19T14:38:25.864Z,5.90
2023-02-19T14:40:54.292Z,5.55
2023-02-19T14:43:24.839Z,5.30
2023-02-19T14:45:59.140Z,7.95
2023-02-19T14:48:31.478Z,8.63
2023-02-19T14:51:07.137Z,8.93
2023-02-19T14:53:38.876Z,11.45
2023-02-19T14:56:14.818Z,6.82
2023-02-19T14:58:42.187Z,5.20
2023-02-19T15:01:28.500Z,5.43
2023-02-19T15:03:56.568Z,6.45
2023-02-19T15:06:24.520Z,5.70
2023-02-19T15:08:58.037Z,4.95
2023-02-19T15:11:28.165Z,4.93
2023-02-19T15:14:00.577Z,4.95
2023-02-19T15:16:29.284Z,5.10
2023-02-19T15:18:58.099Z,4.90
2023-02-19T15:21:26.370Z,4.95
2023-02-19T15:24:05.246Z,5.90
2023-02-19T15:26:37.761Z,5.72
2023-02-19T15:29:13.925Z,7.50
2023-02-19T15:31:56.257Z,5.05
2023-02-19T15:34:24.458Z,7.75
2023-02-19T15:36:57.270Z,6.35
2023-02-19T15:39:27.546Z,5.07
2023-02-19T15:42:00.600Z,6.95
2023-02-19T15:44:28.061Z,5.55
2023-02-19T15:46:56.375Z,7.20
2023-02-19T15:49:32.056Z,7.32
2023-02-19T15:52:09.874Z,7.68
2023-02-19T15:54:42.261Z,7.80
2023-02-19T15:57:16.976Z,6.80
2023-02-19T16:00:15.051Z,5.97
2023-02-19T16:02:42.757Z,12.65
2023-02-19T16:05:27.368Z,9.52
2023-02-19T16:08:12.610Z,12.95
2023-02-19T16:10:39.528Z,13.85
2023-02-19T16:13:12.185Z,18.17
2023-02-19T16:15:39.789Z,17.60
2023-02-19T16:18:06.695Z,12.13
2023-02-19T16:20:35.404Z,10.55
2023-02-19T16:23:11.159Z,10.95
2023-02-19T16:25:42.148Z,9.80
2023-02-19T16:28:21.579Z,11.35
2023-02-19T16:31:04.270Z,11.85
2023-02-19T16:33:39.196Z,13.05
2023-02-19T16:36:22.403Z,13.02
2023-02-19T16:39:19.557Z,15.68
2023-02-19T16:41:47.251Z,13.98
2023-02-19T16:44:39.038Z,11.77
2023-02-19T16:47:20.589Z,11.40
2023-02-19T16:49:48.272Z,13.52
2023-02-19T16:52:17.745Z,12.63
2023-02-19T16:54:46.271Z,13.00
2023-02-19T16:57:38.175Z,11.57
2023-02-19T17:00:04.252Z,10.40
2023-02-19T17:02:34.337Z,12.68
2023-02-19T17:05:03.275Z,8.23
2023-02-19T17:07:34.358Z,10.07
2023-02-19T17:10:04.384Z,12.48
2023-02-19T17:12:34.171Z,12.98
2023-02-19T17:15:01.534Z,10.70
2023-02-19T17:17:29.773Z,11.55
2023-02-19T17:19:58.236Z,14.07
2023-02-19T17:22:26.925Z,15.45
2023-02-19T17:24:55.860Z,11.57
2023-02-19T17:27:23.166Z,9.50
2023-02-19T17:29:50.932Z,8.82
2023-02-19T17:32:18.064Z,9.45
2023-02-19T17:34:50.196Z,7.68
2023-02-19T17:37:18.253Z,7.45
2023-02-19T17:39:45.474Z,18.52
2023-02-19T17:42:12.785Z,15.82
2023-02-19T17:44:40.397Z,23.65
2023-02-19T17:47:10.641Z,27.35
2023-02-19T17:49:39.280Z,18.20
2023-02-19T17:52:13.340Z,15.45
2023-02-19T17:54:41.216Z,13.27
2023-02-19T17:57:08.527Z,16.13
2023-02-19T17:59:35.975Z,10.40
2023-02-19T18:02:03.298Z,14.02
2023-02-19T18:04:30.475Z,16.65
2023-02-19T18:06:57.453Z,15.43
2023-02-19T18:09:24.802Z,13.20
2023-02-19T18:11:51.847Z,15.48
2023-02-19T18:14:18.984Z,23.63
2023-02-19T18:16:50.442Z,21.23
2023-02-19T18:19:18.315Z,17.50
2023-02-19T18:21:45.124Z,18.13
2023-02-19T18:24:12.599Z,13.77
2023-02-19T18:26:39.631Z,13.93
2023-02-19T18:29:07.124Z,11.82
2023-02-19T18:31:37.131Z,17.55
2023-02-19T18:34:05.560Z,15.45
2023-02-19T18:36:33.076Z,14.18
2023-02-19T18:39:00.314Z,15.48
2023-02-19T18:41:30.344Z,13.73
2023-02-19T18:43:57.182Z,19.35
2023-02-19T18:46:24.139Z,21.17
2023-02-19T18:48:51.003Z,18.42
2023-02-19T18:51:17.851Z,24.10
2023-02-19T18:53:44.689Z,20.85
2023-02-19T18:56:11.558Z,17.38
2023-02-19T18:58:38.383Z,16.27
2023-02-19T19:01:05.502Z,15.85
2023-02-19T19:03:32.365Z,17.42
2023-02-19T19:06:02.362Z,20.27
2023-02-19T19:08:30.677Z,17.60
2023-02-19T19:10:58.029Z,19.85
2023-02-19T19:13:27.618Z,19.83
2023-02-19T19:15:57.442Z,19.42
2023-02-19T19:18:25.113Z,16.10
2023-02-19T19:20:56.286Z,19.85
2023-02-19T19:23:23.057Z,14.88
2023-02-19T19:25:49.865Z,17.92
2023-02-19T19:28:16.686Z,22.05
2023-02-19T19:30:45.775Z,23.13
2023-02-19T19:33:14.227Z,18.30
2023-02-19T19:35:41.220Z,18.50
2023-02-19T19:38:13.736Z,20.65
2023-02-19T19:41:14.281Z,9.75
2023-02-19T19:43:41.752Z,20.05
2023-02-19T19:46:09.291Z,16.15
2023-02-19T19:48:36.697Z,15.85
2023-02-19T19:51:03.597Z,15.90
2023-02-19T19:53:30.447Z,13.77
2023-02-19T19:55:58.075Z,18.52
2023-02-19T19:58:25.408Z,16.80
2023-02-19T20:00:52.917Z,20.13
2023-02-19T20:03:20.773Z,18.35
2023-02-19T20:05:52.900Z,44.70
2023-02-19T20:08:20.146Z,33.58
2023-02-19T20:10:47.202Z,35.88
2023-02-19T20:13:19.009Z,30.50
2023-02-19T20:15:46.011Z,25.65
2023-02-19T20:18:15.065Z,25.38
2023-02-19T20:20:41.905Z,24.83
2023-02-19T20:23:09.571Z,26.05
2023-02-19T20:25:40.624Z,25.35
2023-02-19T20:28:07.479Z,25.70
2023-02-19T20:30:37.126Z,25.33
2023-02-19T20:33:04.651Z,38.67
2023-02-19T20:35:31.942Z,30.25
2023-02-19T20:37:58.852Z,39.05
2023-02-19T20:40:27.699Z,41.03
2023-02-19T20:42:54.948Z,34.17
2023-02-19T20:45:22.068Z,33.53
2023-02-19T20:47:48.969Z,35.80
2023-02-19T20:50:19.162Z,38.90
2023-02-19T20:52:46.915Z,33.25
2023-02-19T20:55:13.713Z,36.40
2023-02-19T20:57:40.530Z,59.72
2023-02-19T21:00:08.773Z,46.95
2023-02-19T21:02:36.125Z,51.90
2023-02-19T21:05:04.429Z,39.40
2023-02-19T21:07:31.425Z,48.38
2023-02-19T21:09:58.774Z,44.00
2023-02-19T21:12:25.580Z,51.92
2023-02-19T21:14:52.555Z,40.92
2023-02-19T21:17:19.809Z,34.60
2023-02-19T21:19:49.307Z,45.42
2023-02-19T21:22:17.147Z,38.95
2023-02-19T21:24:44.658Z,23.58
2023-02-19T21:27:11.950Z,29.02
2023-02-19T21:29:38.962Z,35.90
2023-02-19T21:32:06.355Z,36.55
2023-02-19T21:34:33.218Z,43.17
2023-02-19T21:37:00.459Z,42.67
2023-02-19T21:39:28.021Z,42.17
2023-02-19T21:41:55.298Z,51.25
2023-02-19T21:44:22.210Z,48.70
2023-02-19T21:46:49.099Z,52.15
2023-02-19T21:49:16.082Z,52.22
2023-02-19T21:51:44.640Z,38.80
2023-02-19T21:54:17.295Z,56.42
2023-02-19T21:56:44.402Z,59.65
2023-02-19T21:59:12.000Z,81.88
2023-02-19T22:01:39.453Z,56.70
2023-02-19T22:04:08.023Z,47.33
2023-02-19T22:06:35.288Z,40.30
2023-02-19T22:09:02.351Z,46.70
2023-02-19T22:11:29.603Z,39.63
2023-02-19T22:13:56.863Z,53.65
2023-02-19T22:16:24.039Z,46.97
2023-02-19T22:18:53.536Z,43.05
2023-02-19T22:21:21.948Z,55.13
2023-02-19T22:23:50.295Z,48.83
2023-02-19T22:26:22.839Z,46.35
2023-02-19T22:28:50.207Z,44.22
2023-02-19T22:31:22.564Z,42.90
2023-02-19T22:33:50.405Z,33.33
2023-02-19T22:36:21.329Z,37.63
2023-02-19T22:38:49.206Z,37.92
2023-02-19T22:41:18.034Z,36.30
2023-02-19T22:43:45.345Z,43.42
2023-02-19T22:46:16.130Z,38.20
2023-02-19T22:48:43.116Z,41.17
2023-02-19T22:51:13.229Z,39.25
2023-02-19T22:53:59.282Z,42.08
2023-02-19T22:56:28.416Z,38.17
2023-02-19T22:58:56.804Z,33.50
2023-02-19T23:01:24.533Z,27.10
2023-02-19T23:03:54.950Z,36.17
2023-02-19T23:06:30.688Z,42.33
2023-02-19T23:08:59.780Z,40.67
2023-02-19T23:11:30.209Z,42.70
2023-02-19T23:13:57.283Z,38.70
2023-02-19T23:16:24.380Z,33.60
2023-02-19T23:18:52.120Z,31.27
2023-02-19T23:21:19.856Z,33.65
2023-02-19T23:23:47.996Z,39.50
2023-02-19T23:26:16.528Z,29.90
2023-02-19T23:28:44.676Z,32.10
2023-02-19T23:31:12.773Z,28.38
2023-02-19T23:33:40.358Z,28.52
2023-02-19T23:36:07.741Z,29.10
2023-02-19T23:38:34.833Z,31.20
2023-02-19T23:41:02.257Z,33.85
2023-02-19T23:43:29.522Z,41.78
2023-02-19T23:45:57.030Z,35.20
2023-02-19T23:48:24.334Z,26.88
2023-02-19T23:50:51.189Z,28.70
2023-02-19T23:53:18.066Z,29.83
2023-02-19T23:55:44.880Z,23.80
2023-02-19T23:58:11.824Z,27.08
